createdAt,value
2022-12-24T00:19:19.339Z,78.05
2022-12-24T00:49:23.959Z,76.46
2022-12-24T01:19:28.122Z,78.41
2022-12-24T01:49:32.684Z,78.71
2022-12-24T02:20:05.134Z,81.95
2022-12-24T02:50:12.618Z,83.44
2022-12-24T03:20:19.909Z,83.98
2022-12-24T03:50:23.800Z,84.82
2022-12-24T04:20:27.933Z,86.82
2022-12-24T04:50:32.143Z,89.29
2022-12-24T05:20:37.475Z,90.54
2022-12-24T05:50:42.119Z,94.18
2022-12-24T06:20:46.860Z,95.13
2022-12-24T06:50:50.829Z,94.54
2022-12-24T07:20:55.137Z,94.52
2022-12-24T07:50:59.630Z,94.49
2022-12-24T08:21:04.927Z,95.13
2022-12-24T08:51:10.168Z,93.29
2022-12-24T09:21:15.990Z,85.32
2022-12-24T09:51:26.108Z,86.88
2022-12-24T10:21:36.273Z,87.02
2022-12-24T10:51:44.957Z,86.43
2022-12-24T11:21:49.333Z,80.89
2022-12-24T11:52:28.642Z,81.71
2022-12-24T12:22:37.005Z,79.35
2022-12-24T12:52:52.227Z,77.49
2022-12-24T13:22:59.302Z,79.10
2022-12-24T13:53:03.400Z,72.57
2022-12-24T14:23:10.129Z,76.05
2022-12-24T14:53:27.803Z,79.73
2022-12-24T15:23:34.793Z,82.49
2022-12-24T15:53:43.787Z,86.01
2022-12-24T16:23:50.142Z,86.17
2022-12-24T16:53:54.140Z,86.96
2022-12-24T17:23:58.638Z,89.03
2022-12-24T17:54:03.114Z,91.86
2022-12-24T18:24:07.923Z,93.54
2022-12-24T18:54:12.200Z,93.47
2022-12-24T19:24:16.284Z,92.68
2022-12-24T19:54:20.973Z,94.79
2022-12-24T20:24:25.210Z,95.12
2022-12-24T20:54:29.350Z,93.50
2022-12-24T21:24:33.384Z,94.28
2022-12-24T21:54:37.432Z,94.14
2022-12-24T22:24:41.579Z,92.58
2022-12-24T22:54:45.732Z,91.77
2022-12-24T23:24:49.743Z,91.97
2022-12-24T23:54:53.710Z,94.97
